createdAt,value
2023-04-22T00:03:09.546Z,100.00
2023-04-22T00:08:15.260Z,100.00
2023-04-22T00:13:19.409Z,100.00
2023-04-22T00:18:23.528Z,100.00
2023-04-22T00:23:29.195Z,100.00
2023-04-22T00:28:33.252Z,100.00
2023-04-22T00:33:37.292Z,100.00
2023-04-22T00:38:47.819Z,100.00
2023-04-22T00:43:53.606Z,100.00
2023-04-22T00:48:58.618Z,100.00
2023-04-22T00:54:04.862Z,100.00
2023-04-22T00:59:10.920Z,100.00
2023-04-22T01:04:16.093Z,100.00
2023-04-22T01:09:25.822Z,100.00
2023-04-22T01:14:30.697Z,100.00
2023-04-22T01:19:34.913Z,100.00
2023-04-22T01:24:40.892Z,100.00
2023-04-22T01:29:44.882Z,100.00
2023-04-22T01:34:49.252Z,100.00
2023-04-22T01:39:55.523Z,100.00
2023-04-22T01:44:59.812Z,100.00
2023-04-22T01:50:04.120Z,100.00
2023-04-22T01:55:10.868Z,100.00
2023-04-22T02:00:15.431Z,100.00
2023-04-22T02:05:25.005Z,100.00
2023-04-22T02:10:30.693Z,100.00
2023-04-22T02:15:34.982Z,100.00
2023-04-22T02:20:39.126Z,100.00
2023-04-22T02:25:50.288Z,100.00
2023-04-22T02:30:56.016Z,100.00
2023-04-22T02:36:00.280Z,100.00
2023-04-22T02:41:06.322Z,100.00
2023-04-22T02:46:56.554Z,100.00
2023-04-22T02:52:00.564Z,100.00
2023-04-22T02:57:04.792Z,100.00
2023-04-22T03:02:11.578Z,100.00
2023-04-22T03:07:33.320Z,100.00
2023-04-22T03:12:37.661Z,100.00
2023-04-22T03:17:43.311Z,100.00
2023-04-22T03:22:50.280Z,100.00
2023-04-22T03:27:54.495Z,100.00
2023-04-22T03:33:00.252Z,100.00
2023-04-22T03:38:24.898Z,100.00
2023-04-22T03:43:29.127Z,100.00
2023-04-22T03:48:42.957Z,100.00
2023-04-22T03:54:00.059Z,100.00
2023-04-22T03:59:07.352Z,100.00
2023-04-22T04:04:13.460Z,100.00
2023-04-22T04:09:31.909Z,100.00
2023-04-22T04:14:35.901Z,100.00
2023-04-22T04:19:43.350Z,100.00
2023-04-22T04:24:47.795Z,100.00
2023-04-22T04:29:57.477Z,100.00
2023-04-22T04:35:18.507Z,100.00
2023-04-22T04:40:30.900Z,100.00
2023-04-22T04:45:49.074Z,100.00
2023-04-22T04:50:59.463Z,100.00
2023-04-22T04:56:08.874Z,100.00
2023-04-22T05:01:13.284Z,100.00
2023-04-22T05:06:21.278Z,100.00
2023-04-22T05:11:36.889Z,100.00
2023-04-22T05:16:48.413Z,100.00
2023-04-22T05:21:54.402Z,100.00
2023-04-22T05:26:58.838Z,100.00
2023-04-22T05:32:03.601Z,99.95
2023-04-22T05:37:11.002Z,98.65
2023-04-22T05:42:20.340Z,95.75
2023-04-22T05:47:24.285Z,100.00
2023-04-22T05:52:30.561Z,95.44
2023-04-22T05:57:50.781Z,88.80
2023-04-22T06:03:15.699Z,77.75
2023-04-22T06:08:21.297Z,80.11
2023-04-22T06:13:27.935Z,70.90
2023-04-22T06:18:32.458Z,70.69
2023-04-22T06:23:38.779Z,69.37
2023-04-22T06:28:42.807Z,68.76
2023-04-22T06:33:53.510Z,66.38
2023-04-22T06:38:59.092Z,75.89
2023-04-22T06:44:16.343Z,73.36
2023-04-22T06:49:20.537Z,71.18
2023-04-22T06:54:56.830Z,71.65
2023-04-22T07:00:01.608Z,60.59
2023-04-22T07:05:06.585Z,61.37
2023-04-22T07:10:14.770Z,66.11
2023-04-22T07:15:28.403Z,62.64
2023-04-22T07:20:32.528Z,66.62
2023-04-22T07:25:37.935Z,60.30
2023-04-22T07:30:41.975Z,61.87
2023-04-22T07:35:46.255Z,61.14
2023-04-22T07:40:51.866Z,57.25
2023-04-22T07:45:55.695Z,56.66
2023-04-22T07:50:59.643Z,53.02
2023-04-22T08:01:06.615Z,50.85
2023-04-22T08:06:10.740Z,48.82
2023-04-22T08:11:14.758Z,50.79
2023-04-22T08:16:20.190Z,46.06
2023-04-22T08:21:23.903Z,46.60
2023-04-22T08:26:27.948Z,48.64
2023-04-22T08:31:33.423Z,44.65
2023-04-22T08:36:37.379Z,42.74
2023-04-22T08:41:45.057Z,45.63
2023-04-22T08:46:51.033Z,41.65
2023-04-22T08:51:56.189Z,41.56
2023-04-22T08:57:02.559Z,40.67
2023-04-22T09:02:08.831Z,39.97
2023-04-22T09:07:15.404Z,38.14
2023-04-22T09:12:19.510Z,35.55
2023-04-22T09:17:33.854Z,38.94
2023-04-22T09:22:43.391Z,39.21
2023-04-22T09:27:51.693Z,38.95
2023-04-22T09:32:58.404Z,37.40
2023-04-22T09:38:03.556Z,36.02
2023-04-22T09:43:09.527Z,36.46
2023-04-22T09:48:16.606Z,34.55
2023-04-22T09:53:22.050Z,34.09
2023-04-22T09:58:27.824Z,34.33
2023-04-22T10:03:33.350Z,32.72
2023-04-22T10:08:37.681Z,34.09
2023-04-22T10:13:41.686Z,33.86
2023-04-22T10:18:48.666Z,36.33
2023-04-22T10:23:52.830Z,38.33
2023-04-22T10:28:58.892Z,36.70
2023-04-22T10:34:14.745Z,38.66
2023-04-22T10:39:19.101Z,38.40
2023-04-22T10:44:23.627Z,37.21
2023-04-22T10:49:32.292Z,36.64
2023-04-22T10:55:03.310Z,35.82
2023-04-22T11:00:52.262Z,36.78
2023-04-22T11:06:18.500Z,36.50
2023-04-22T11:11:22.507Z,36.34
2023-04-22T11:16:26.607Z,35.88
2023-04-22T11:21:33.048Z,32.93
2023-04-22T11:26:37.777Z,34.13
2023-04-22T11:31:48.045Z,33.71
2023-04-22T11:36:53.347Z,34.68
2023-04-22T11:41:57.240Z,34.66
2023-04-22T11:47:02.480Z,32.26
2023-04-22T11:52:07.847Z,30.51
2023-04-22T11:57:15.637Z,28.06
2023-04-22T12:02:19.815Z,25.07
2023-04-22T12:07:27.806Z,23.45
2023-04-22T12:12:33.075Z,22.32
2023-04-22T12:17:37.039Z,23.01
2023-04-22T12:22:42.556Z,22.16
2023-04-22T12:27:46.573Z,21.88
2023-04-22T12:32:50.609Z,23.44
2023-04-22T12:37:55.914Z,24.84
2023-04-22T12:42:59.846Z,25.75
2023-04-22T12:48:03.831Z,26.27
2023-04-22T12:53:09.581Z,26.76
2023-04-22T12:58:13.600Z,30.07
2023-04-22T13:03:17.716Z,31.18
2023-04-22T13:08:23.212Z,32.40
2023-04-22T13:13:26.988Z,30.98
2023-04-22T13:18:30.963Z,30.62
2023-04-22T13:23:36.580Z,30.38
2023-04-22T13:28:40.580Z,28.81
2023-04-22T13:33:46.642Z,26.81
2023-04-22T13:38:52.066Z,27.18
2023-04-22T13:43:56.497Z,27.48
2023-04-22T13:49:00.468Z,26.63
2023-04-22T13:54:06.280Z,28.36
2023-04-22T13:59:10.193Z,30.17
2023-04-22T14:04:14.509Z,28.83
2023-04-22T14:09:19.914Z,28.10
2023-04-22T14:14:23.894Z,27.29
2023-04-22T14:19:29.072Z,27.67
2023-04-22T14:24:34.411Z,29.61
2023-04-22T14:29:38.569Z,26.54
2023-04-22T14:34:42.671Z,27.69
2023-04-22T14:39:48.066Z,29.13
2023-04-22T14:44:52.100Z,27.69
2023-04-22T14:49:56.034Z,29.63
2023-04-22T14:55:11.813Z,28.60
2023-04-22T15:00:20.150Z,26.99
2023-04-22T15:05:24.422Z,27.99
2023-04-22T15:10:29.800Z,30.65
2023-04-22T15:15:34.060Z,29.93
2023-04-22T15:20:38.158Z,30.97
2023-04-22T15:25:43.952Z,29.53
2023-04-22T15:30:48.757Z,27.57
2023-04-22T15:35:52.699Z,27.79
2023-04-22T15:40:58.420Z,27.78
2023-04-22T15:46:02.489Z,28.79
2023-04-22T15:51:06.483Z,29.67
2023-04-22T15:56:12.073Z,30.48
2023-04-22T16:01:19.194Z,28.74
2023-04-22T16:06:24.059Z,28.01
2023-04-22T16:11:30.418Z,28.61
2023-04-22T16:16:34.501Z,29.25
2023-04-22T16:21:38.645Z,30.16
2023-04-22T16:26:44.224Z,30.56
2023-04-22T16:31:48.341Z,32.50
2023-04-22T16:36:52.592Z,34.60
2023-04-22T16:41:58.265Z,34.82
2023-04-22T16:47:02.412Z,36.21
2023-04-22T16:52:06.582Z,37.94
2023-04-22T16:57:12.605Z,40.72
2023-04-22T17:02:16.758Z,40.55
2023-04-22T17:07:24.163Z,40.12
2023-04-22T17:12:29.887Z,41.13
2023-04-22T17:17:33.748Z,41.02
2023-04-22T17:22:38.235Z,40.81
2023-04-22T17:27:43.756Z,41.55
2023-04-22T17:32:47.906Z,41.87
2023-04-22T17:37:53.670Z,41.31
2023-04-22T17:42:58.787Z,43.07
2023-04-22T17:48:02.831Z,43.30
2023-04-22T17:53:07.110Z,41.52
2023-04-22T17:58:12.508Z,41.67
2023-04-22T18:03:16.970Z,42.44
2023-04-22T18:08:21.128Z,43.02
2023-04-22T18:13:26.465Z,42.95
2023-04-22T18:18:30.421Z,43.41
2023-04-22T18:23:35.206Z,44.95
2023-04-22T18:28:41.230Z,46.97
2023-04-22T18:33:45.393Z,47.87
2023-04-22T18:38:49.432Z,50.13
2023-04-22T18:43:55.047Z,51.45
2023-04-22T18:48:59.102Z,51.65
2023-04-22T18:54:03.508Z,53.41
2023-04-22T18:59:08.957Z,53.37
2023-04-22T19:04:13.009Z,55.35
2023-04-22T19:09:17.221Z,69.92
2023-04-22T19:14:22.689Z,64.51
2023-04-22T19:19:27.034Z,71.87
2023-04-22T19:24:33.520Z,68.38
2023-04-22T19:29:39.401Z,77.95
2023-04-22T19:34:44.863Z,83.35
2023-04-22T19:39:48.816Z,77.17
2023-04-22T19:44:54.847Z,74.60
2023-04-22T19:49:59.543Z,71.51
2023-04-22T19:55:09.007Z,66.87
2023-04-22T20:00:15.398Z,68.01
2023-04-22T20:05:21.078Z,76.24
2023-04-22T20:10:26.500Z,73.30
2023-04-22T20:15:33.121Z,72.68
2023-04-22T20:20:37.774Z,81.14
2023-04-22T20:25:45.743Z,82.24
2023-04-22T20:30:51.444Z,78.54
2023-04-22T20:35:55.662Z,78.82
2023-04-22T20:41:02.013Z,83.16
2023-04-22T20:46:07.572Z,82.83
2023-04-22T20:51:12.488Z,92.44
2023-04-22T20:56:16.444Z,92.54
2023-04-22T21:01:21.993Z,91.88
2023-04-22T21:06:28.522Z,92.74
2023-04-22T21:11:33.019Z,95.79
2023-04-22T21:16:41.354Z,96.89
2023-04-22T21:21:48.011Z,91.99
2023-04-22T21:26:52.496Z,96.66
2023-04-22T21:32:08.136Z,95.24
2023-04-22T21:37:13.162Z,96.92
2023-04-22T21:42:17.298Z,95.45
2023-04-22T21:47:22.837Z,95.10
2023-04-22T21:52:27.352Z,95.74
2023-04-22T21:57:31.723Z,96.61
2023-04-22T22:02:37.332Z,95.97
2023-04-22T22:07:41.822Z,95.29
2023-04-22T22:12:46.770Z,95.49
2023-04-22T22:17:52.206Z,95.62
2023-04-22T22:22:58.729Z,86.71
2023-04-22T22:28:02.957Z,93.22
2023-04-22T22:33:08.400Z,94.22
2023-04-22T22:38:12.461Z,97.88
2023-04-22T22:43:16.411Z,99.12
2023-04-22T22:48:21.780Z,100.00
2023-04-22T22:53:25.944Z,100.00
2023-04-22T22:58:30.044Z,100.00
2023-04-22T23:03:37.249Z,100.00
2023-04-22T23:08:41.405Z,100.00
2023-04-22T23:13:45.597Z,100.00
2023-04-22T23:18:53.249Z,100.00
2023-04-22T23:23:58.344Z,100.00
2023-04-22T23:29:02.845Z,100.00
2023-04-22T23:34:08.977Z,100.00
2023-04-22T23:39:13.191Z,100.00
2023-04-22T23:44:17.125Z,100.00
2023-04-22T23:49:22.801Z,100.00
2023-04-22T23:54:27.305Z,100.00
2023-04-22T23:59:32.028Z,100.00
